Denmark, New York
Current Conditions -  °F | °C
As of 1:58 AM on Friday 24 Oct 2014 (Local Time) from KGTB Reporting Station
Overcast Overcast  
Wind Chill: 45°   Ceiling: 4600
Heat Index: 45°   Visibility: 10mi
Dew Point: 43°   Wind: 3mph
Humidity: 94%   Direction: 330°NNW
Pressure: 29.93"   Gusts: NA
Location:  43.89°N, 75.56°W
Report Text: KGTB 240558Z AUTO 33003KT 10SM FEW013 OVC046 07/06 A2993 RMK AO2 SLP139 T00700061 10076 20069 55005
Loading
Personal Weather Stations






























Interactive Weather Map
Tropical Storm Tracking
New forecast layout! Learn more

10-Day Weather Forecast

Advertisements
Track Severe Weather on mobile